Time;durP1;ratioP1;P1;durP2;ratioP2;P2;SDS_P1;SDS_P2;PMS_P1;PMS_P2;Temp;Humidity;BMP_temperature;BMP_pressure;BME280_temperature;BME280_humidity;BME280_pressure;Samples;Min_cycle;Max_cycle;Signal;HPM_P1;HPM_P2
2022/08/15 00:00:20;;;;;;;;;20.00;18.25;;;;;21.95;49.04;100114.75;5081795;28;45422;-54
2022/08/15 00:02:48;;;;;;;;;19.75;19.75;;;;;21.95;48.60;100110.28;5072808;28;46215;-53
2022/08/15 00:05:18;;;;;;;;;17.50;16.50;;;;;21.93;49.04;100109.50;5061628;28;45232;-54
2022/08/15 00:07:44;;;;;;;;;19.00;18.75;;;;;21.95;48.86;100107.59;5060202;28;45268;-54
2022/08/15 00:10:10;;;;;;;;;23.00;17.75;;;;;21.92;48.97;100106.00;5061385;28;45514;-54
2022/08/15 00:12:38;;;;;;;;;19.25;18.25;;;;;21.93;49.40;100104.16;5061342;28;46020;-54
2022/08/15 00:15:11;;;;;;;;;17.00;16.25;;;;;21.94;49.34;100100.53;5061576;28;45291;-54
2022/08/15 00:17:39;;;;;;;;;21.25;19.00;;;;;21.97;48.91;100104.81;5060192;28;45324;-55
2022/08/15 00:20:07;;;;;;;;;20.00;16.25;;;;;21.98;49.29;100103.84;5061205;28;45423;-54
2022/08/15 00:22:33;;;;;;;;;19.00;18.50;;;;;21.97;49.28;100102.97;5061222;28;46095;-53
2022/08/15 00:24:58;;;;;;;;;20.75;18.25;;;;;21.96;49.19;100103.97;5060993;28;45448;-54
2022/08/15 00:27:24;;;;;;;;;17.50;16.25;;;;;21.99;48.89;100105.56;5061331;28;45418;-53
2022/08/15 00:29:51;;;;;;;;;16.50;16.50;;;;;21.97;48.99;100097.63;5060929;28;45355;-58
2022/08/15 00:32:23;;;;;;;;;19.50;19.50;;;;;21.99;48.94;100095.69;5061068;28;46363;-54
2022/08/15 00:34:50;;;;;;;;;19.00;18.50;;;;;21.96;49.19;100097.75;5059843;28;45385;-53
2022/08/15 00:37:17;;;;;;;;;19.50;17.00;;;;;22.00;49.10;100102.78;5061255;28;45347;-57
2022/08/15 00:39:44;;;;;;;;;25.50;22.75;;;;;21.98;48.76;100095.81;5061036;28;45563;-53
2022/08/15 00:42:09;;;;;;;;;22.25;19.75;;;;;21.98;49.65;100098.50;5060779;28;46072;-49
2022/08/15 00:44:44;;;;;;;;;21.50;17.25;;;;;21.97;49.12;100097.63;5060603;28;45258;-54
2022/08/15 00:47:16;;;;;;;;;21.75;21.75;;;;;21.96;49.27;100092.38;5059468;28;45261;-54
2022/08/15 00:49:44;;;;;;;;;19.75;19.75;;;;;21.95;49.58;100091.56;5060743;28;45552;-55
2022/08/15 00:52:22;;;;;;;;;19.50;18.00;;;;;21.95;49.68;100088.88;5075051;28;45536;-53
2022/08/15 00:54:53;;;;;;;;;19.00;19.00;;;;;21.94;49.52;100100.53;5081235;28;45338;-54
2022/08/15 00:57:19;;;;;;;;;17.00;16.50;;;;;21.92;49.42;100097.97;5081025;28;45303;-53
2022/08/15 00:59:48;;;;;;;;;18.75;18.75;;;;;21.92;49.35;100094.44;5069247;28;45233;-53
2022/08/15 01:02:16;;;;;;;;;24.25;22.00;;;;;21.93;49.10;100088.13;5073971;28;46921;-54
2022/08/15 01:04:42;;;;;;;;;20.00;19.00;;;;;21.92;49.37;100097.09;5060725;28;45194;-54
2022/08/15 01:07:09;;;;;;;;;21.50;20.25;;;;;21.92;49.46;100083.72;5060516;28;45328;-54
2022/08/15 01:09:36;;;;;;;;;20.00;20.00;;;;;21.90;49.24;100094.53;5060771;28;45181;-53
2022/08/15 01:12:07;;;;;;;;;21.75;20.50;;;;;21.88;49.53;100088.44;5060418;28;45445;-53
2022/08/15 01:14:35;;;;;;;;;24.75;23.00;;;;;21.88;49.28;100091.13;5060152;28;45234;-54
2022/08/15 01:17:01;;;;;;;;;22.25;19.50;;;;;21.88;49.52;100090.28;5078065;28;45200;-54
2022/08/15 01:19:38;;;;;;;;;26.00;22.00;;;;;21.86;49.85;100086.84;5068479;27;45441;-54
2022/08/15 01:22:48;;;;;;;;;19.75;19.25;;;;;21.86;49.82;100092.19;5060402;28;46644;-53
2022/08/15 01:25:19;;;;;;;;;23.00;21.50;;;;;21.84;49.81;100091.47;5051415;28;45219;-53
2022/08/15 01:27:51;;;;;;;;;22.50;20.25;;;;;21.82;49.93;100091.56;5060026;28;45415;-54
2022/08/15 01:30:19;;;;;;;;;22.00;20.00;;;;;21.81;49.78;100089.88;5060434;28;45698;-55
2022/08/15 01:32:46;;;;;;;;;17.75;17.00;;;;;21.82;49.38;100090.72;5059904;28;46594;-54
2022/08/15 01:35:12;;;;;;;;;20.50;18.25;;;;;21.79;49.98;100090.94;5060292;28;45252;-54
2022/08/15 01:37:40;;;;;;;;;21.00;21.00;;;;;21.76;50.20;100100.03;5060196;28;45262;-54
2022/08/15 01:40:28;;;;;;;;;19.75;18.75;;;;;21.75;49.80;100092.97;5060102;28;45555;-53
2022/08/15 01:42:57;;;;;;;;;24.00;22.75;;;;;21.72;50.21;100094.06;5059654;28;46175;-53
2022/08/15 01:45:26;;;;;;;;;19.00;19.00;;;;;21.73;49.92;100086.88;5059647;28;45509;-53
2022/08/15 01:48:05;;;;;;;;;21.75;21.25;;;;;21.70;50.05;100082.59;5059886;28;45246;-53
2022/08/15 01:50:53;;;;;;;;;23.75;22.50;;;;;21.70;49.76;100087.94;5060484;28;45302;-53
2022/08/15 01:53:27;;;;;;;;;28.00;26.25;;;;;21.69;49.69;100088.91;5079705;28;45347;-53
2022/08/15 01:56:03;;;;;;;;;31.25;27.00;;;;;21.68;50.23;100095.22;5080215;28;45420;-53
2022/08/15 01:58:29;;;;;;;;;25.50;22.00;;;;;21.65;50.03;100084.75;5079923;28;45343;-53
2022/08/15 02:01:01;;;;;;;;;25.50;25.50;;;;;21.65;50.25;100089.25;5080016;28;45248;-54
2022/08/15 02:03:34;;;;;;;;;27.50;25.00;;;;;21.63;50.36;100083.16;5065975;27;45269;-54
2022/08/15 02:06:29;;;;;;;;;25.25;24.50;;;;;21.62;49.88;100079.59;5059792;28;45288;-52
2022/08/15 02:08:55;;;;;;;;;25.00;22.50;;;;;21.60;50.17;100076.22;5059463;28;45331;-54
2022/08/15 02:11:25;;;;;;;;;24.75;23.00;;;;;21.57;50.38;100077.28;5058549;28;45505;-52
2022/08/15 02:13:54;;;;;;;;;25.75;25.75;;;;;21.57;50.15;100073.75;5059434;28;46559;-52
2022/08/15 02:16:22;;;;;;;;;24.00;22.50;;;;;21.56;50.11;100074.72;5068667;28;45245;-53
2022/08/15 02:18:48;;;;;;;;;29.25;27.00;;;;;21.51;50.29;100075.00;5059931;28;45312;-53
2022/08/15 02:21:13;;;;;;;;;23.50;22.75;;;;;21.53;50.22;100072.22;5059527;28;45464;-54
2022/08/15 02:23:39;;;;;;;;;27.75;24.00;;;;;21.51;50.51;100082.16;5059751;28;45242;-51
2022/08/15 02:26:07;;;;;;;;;26.75;26.50;;;;;21.50;50.30;100072.44;5059369;28;45277;-50
2022/08/15 02:28:33;;;;;;;;;25.75;24.50;;;;;21.47;49.90;100075.31;5059586;28;45422;-54
2022/08/15 02:30:58;;;;;;;;;25.50;23.75;;;;;21.41;50.45;100066.78;5059282;28;45332;-52
2022/08/15 02:33:24;;;;;;;;;27.50;27.25;;;;;21.43;50.17;100062.19;5059450;28;45370;-53
2022/08/15 02:35:51;;;;;;;;;25.75;25.00;;;;;21.42;49.89;100063.16;5059413;28;45321;-52
2022/08/15 02:38:17;;;;;;;;;25.50;22.75;;;;;21.43;50.35;100064.00;5059553;28;45497;-54
2022/08/15 02:40:42;;;;;;;;;26.00;23.50;;;;;21.42;50.37;100059.59;5071756;28;45248;-54
2022/08/15 02:43:11;;;;;;;;;31.00;28.25;;;;;21.38;50.41;100060.78;5059142;28;46026;-54
2022/08/15 02:45:38;;;;;;;;;29.00;26.00;;;;;21.34;50.88;100062.81;5059159;28;45382;-54
2022/08/15 02:48:06;;;;;;;;;28.00;28.00;;;;;21.31;50.63;100051.50;5057973;28;45277;-54
2022/08/15 02:50:32;;;;;;;;;27.00;27.00;;;;;21.29;50.47;100051.59;5059786;28;45349;-50
2022/08/15 02:52:58;;;;;;;;;28.00;25.75;;;;;21.23;50.58;100060.06;5079485;27;45237;-52
2022/08/15 02:55:23;;;;;;;;;35.00;28.75;;;;;21.24;50.78;100064.44;5079589;28;45193;-52
2022/08/15 02:57:49;;;;;;;;;26.50;26.50;;;;;21.21;50.55;100054.81;5072852;28;45362;-54
2022/08/15 03:00:16;;;;;;;;;26.75;26.75;;;;;21.20;50.79;100053.09;5076616;28;45539;-53
2022/08/15 03:03:00;;;;;;;;;29.00;28.00;;;;;21.17;50.68;100049.78;5075149;28;47161;-53
2022/08/15 03:05:29;;;;;;;;;29.75;26.75;;;;;21.11;50.70;100049.25;5062591;28;45330;-54
2022/08/15 03:07:55;;;;;;;;;33.00;30.00;;;;;21.09;51.20;100045.84;5062558;28;45355;-52
2022/08/15 03:10:20;;;;;;;;;29.00;26.75;;;;;21.10;51.23;100044.03;5062435;28;45408;-53
2022/08/15 03:12:53;;;;;;;;;26.50;23.75;;;;;21.08;51.31;100048.59;5062148;28;45297;-53
2022/08/15 03:15:20;;;;;;;;;31.50;30.25;;;;;21.06;50.97;100043.38;5062524;28;45538;-53
2022/08/15 03:17:46;;;;;;;;;33.25;28.25;;;;;21.07;51.23;100046.94;5062307;28;45347;-50
2022/08/15 03:20:11;;;;;;;;;31.75;30.75;;;;;21.06;51.20;100045.22;5062263;28;45403;-53
2022/08/15 03:22:45;;;;;;;;;26.00;24.25;;;;;21.03;51.19;100040.94;5062092;28;46299;-54
2022/08/15 03:25:12;;;;;;;;;24.50;23.00;;;;;21.01;51.32;100036.66;5062121;28;45319;-54
2022/08/15 03:27:39;;;;;;;;;29.00;26.75;;;;;20.99;51.06;100028.72;5061841;28;45217;-53
2022/08/15 03:30:07;;;;;;;;;26.50;25.00;;;;;20.99;51.31;100036.75;5062144;28;45467;-53
2022/08/15 03:32:48;;;;;;;;;21.00;21.00;;;;;20.99;51.07;100033.22;5061725;28;46298;-54
2022/08/15 03:35:14;;;;;;;;;33.00;27.50;;;;;20.94;51.05;100025.53;5062116;28;45177;-53
2022/08/15 03:37:40;;;;;;;;;26.75;25.25;;;;;20.94;50.64;100029.06;5062082;28;45450;-54
2022/08/15 03:40:06;;;;;;;;;24.50;21.75;;;;;20.94;50.59;100030.88;5062123;28;45426;-52
2022/08/15 03:42:33;;;;;;;;;24.00;24.00;;;;;20.92;50.98;100030.97;5061529;28;45459;-52
2022/08/15 03:45:02;;;;;;;;;27.00;23.50;;;;;20.91;50.79;100036.44;5061850;28;45332;-53
2022/08/15 03:47:28;;;;;;;;;27.75;25.00;;;;;20.90;50.62;100034.72;5061895;28;45228;-53
2022/08/15 03:49:53;;;;;;;;;25.00;24.25;;;;;20.85;50.89;100032.34;5061969;28;45249;-52
2022/08/15 03:52:19;;;;;;;;;23.75;23.75;;;;;20.86;50.75;100026.06;5077381;28;45202;-53
2022/08/15 03:54:44;;;;;;;;;26.50;25.50;;;;;20.87;50.69;100032.28;5082219;28;45341;-53
2022/08/15 03:57:09;;;;;;;;;23.50;23.50;;;;;20.86;50.95;100028.72;5082226;28;45282;-53
2022/08/15 03:59:35;;;;;;;;;26.50;24.25;;;;;20.88;50.75;100032.16;5081485;28;45508;-52
2022/08/15 04:02:02;;;;;;;;;23.25;21.25;;;;;20.88;50.25;100020.59;5079785;28;45252;-53
2022/08/15 04:04:28;;;;;;;;;27.25;26.25;;;;;20.86;50.18;100017.22;5061748;28;45335;-52
2022/08/15 04:06:53;;;;;;;;;25.25;22.50;;;;;20.88;50.22;100021.47;5061520;28;45344;-53
2022/08/15 04:09:18;;;;;;;;;31.00;26.25;;;;;20.86;50.61;100018.06;5061548;28;45490;-53
2022/08/15 04:11:45;;;;;;;;;27.75;25.00;;;;;20.85;50.27;100018.16;5071592;28;45376;-51
2022/08/15 04:14:10;;;;;;;;;30.00;23.00;;;;;20.84;50.47;100011.97;5061279;28;45276;-50
2022/08/15 04:16:36;;;;;;;;;28.25;25.00;;;;;20.82;50.65;100015.69;5061390;28;45347;-53
2022/08/15 04:19:01;;;;;;;;;27.00;23.50;;;;;20.80;50.93;100022.97;5061500;28;45628;-52
2022/08/15 04:21:27;;;;;;;;;22.75;22.50;;;;;20.80;50.07;100025.63;5061247;28;45469;-53
2022/08/15 04:23:52;;;;;;;;;22.00;21.75;;;;;20.75;50.67;100020.59;5061356;28;45262;-53
2022/08/15 04:26:18;;;;;;;;;24.00;21.25;;;;;20.75;50.73;100020.59;5061289;28;45216;-53
2022/08/15 04:28:44;;;;;;;;;27.75;23.50;;;;;20.72;50.84;100016.34;5061136;28;45263;-51
2022/08/15 04:31:14;;;;;;;;;22.00;21.50;;;;;20.70;50.69;100020.88;5060991;28;45556;-53
2022/08/15 04:33:39;;;;;;;;;21.25;20.75;;;;;20.68;50.23;100016.59;5061153;28;45399;-54
2022/08/15 04:36:10;;;;;;;;;20.25;20.00;;;;;20.66;50.27;100022.06;5061231;28;45370;-51
2022/08/15 04:38:37;;;;;;;;;22.50;19.75;;;;;20.66;49.95;100011.38;5061051;28;45226;-53
2022/08/15 04:41:04;;;;;;;;;22.00;22.00;;;;;20.66;50.10;100015.88;5060862;28;45417;-54
2022/08/15 04:43:31;;;;;;;;;20.00;17.75;;;;;20.66;50.64;100021.22;5060799;28;45365;-51
2022/08/15 04:45:57;;;;;;;;;24.75;22.75;;;;;20.65;50.06;100020.34;5060818;28;45401;-54
2022/08/15 04:48:25;;;;;;;;;22.75;22.25;;;;;20.64;49.89;100018.66;5061265;28;45301;-52
2022/08/15 04:50:52;;;;;;;;;15.75;15.75;;;;;20.65;49.98;100020.34;5064035;28;46281;-54
2022/08/15 04:53:21;;;;;;;;;24.00;21.25;;;;;20.66;50.34;100018.53;5081099;28;45449;-52
2022/08/15 04:55:48;;;;;;;;;19.75;19.50;;;;;20.67;50.24;100007.75;5081125;28;45273;-52
2022/08/15 04:58:15;;;;;;;;;20.75;20.75;;;;;20.67;50.31;100006.91;5080604;28;46496;-52
2022/08/15 05:00:55;;;;;;;;;20.00;20.00;;;;;20.66;50.23;100000.69;5080810;28;45324;-51
2022/08/15 05:03:21;;;;;;;;;22.50;21.75;;;;;20.67;49.94;100002.41;5060695;28;45282;-51
2022/08/15 05:05:52;;;;;;;;;25.50;24.25;;;;;20.71;49.86;100003.09;5060809;28;45579;-54
2022/08/15 05:08:20;;;;;;;;;26.50;22.75;;;;;20.70;49.65;99996.84;5060524;28;45367;-53
2022/08/15 05:10:51;;;;;;;;;20.25;19.25;;;;;20.72;50.08;99986.97;5060485;28;46337;-53
2022/08/15 05:13:21;;;;;;;;;20.25;18.75;;;;;20.73;49.61;99983.34;5060233;28;45293;-53
2022/08/15 05:15:48;;;;;;;;;24.75;22.75;;;;;20.73;50.09;99991.34;5060529;28;45316;-52
2022/08/15 05:18:14;;;;;;;;;22.75;19.75;;;;;20.74;50.12;99993.06;5060402;28;45177;-52
2022/08/15 05:20:41;;;;;;;;;21.75;17.50;;;;;20.74;50.05;99993.06;5059997;28;45167;-53
2022/08/15 05:23:10;;;;;;;;;23.00;22.75;;;;;20.72;50.18;99986.13;5060227;28;45174;-52
2022/08/15 05:25:39;;;;;;;;;22.25;21.75;;;;;20.74;50.07;99984.19;5060372;28;45317;-54
2022/08/15 05:28:05;;;;;;;;;19.00;18.75;;;;;20.74;49.91;99993.06;5059927;28;45543;-51
2022/08/15 05:30:32;;;;;;;;;24.00;22.00;;;;;20.74;49.56;99998.41;5060248;28;46021;-53
2022/08/15 05:33:07;;;;;;;;;22.25;20.00;;;;;20.73;50.16;100002.03;5060061;28;45364;-52
2022/08/15 05:35:34;;;;;;;;;22.50;19.75;;;;;20.73;49.78;99996.69;5060312;28;45504;-53
2022/08/15 05:38:04;;;;;;;;;23.25;22.25;;;;;20.72;49.66;99989.63;5060091;28;45320;-53
2022/08/15 05:41:00;;;;;;;;;23.75;22.00;;;;;20.74;50.02;99995.72;5059824;28;45238;-53
2022/08/15 05:43:46;;;;;;;;;20.75;18.25;;;;;20.73;49.96;100001.19;5060046;28;45307;-53
2022/08/15 05:46:26;;;;;;;;;21.50;20.00;;;;;20.73;50.04;100003.84;5060108;28;45257;-54
2022/08/15 05:49:08;;;;;;;;;18.75;17.50;;;;;20.72;49.39;100002.97;5059958;28;45775;-51
2022/08/15 05:52:01;;;;;;;;;25.00;22.00;;;;;20.72;49.97;99994.97;5069278;28;46566;-52
2022/08/15 05:54:56;;;;;;;;;19.50;18.50;;;;;20.71;50.06;99990.59;5080339;28;45227;-53
2022/08/15 05:57:31;;;;;;;;;18.75;18.25;;;;;20.71;49.57;99998.59;5079991;28;45409;-52
2022/08/15 06:00:03;;;;;;;;;21.25;21.25;;;;;20.69;50.20;100000.50;5080058;28;45473;-53
2022/08/15 06:02:36;;;;;;;;;20.75;17.50;;;;;20.69;49.65;99994.28;5067049;28;47802;-53
2022/08/15 06:05:10;;;;;;;;;24.00;20.25;;;;;20.70;49.46;99996.84;5058348;28;45333;-53
2022/08/15 06:07:38;;;;;;;;;20.25;19.00;;;;;20.70;50.06;99996.84;5067985;28;45437;-53
2022/08/15 06:10:13;;;;;;;;;23.25;21.00;;;;;20.68;49.45;100004.13;5079979;28;45535;-54
2022/08/15 06:12:46;;;;;;;;;21.50;18.75;;;;;20.61;49.33;99992.16;5079539;28;45281;-54
2022/08/15 06:15:14;;;;;;;;;19.75;19.75;;;;;20.70;49.58;100006.69;5079825;28;45450;-53
2022/08/15 06:17:54;;;;;;;;;22.75;21.50;;;;;20.69;49.67;100011.19;5079968;28;45267;-53
2022/08/15 06:20:25;;;;;;;;;19.25;18.50;;;;;20.68;49.55;100003.25;5079922;28;45334;-53
2022/08/15 06:22:57;;;;;;;;;22.00;20.50;;;;;20.66;49.97;99994.50;5079652;28;46217;-53
2022/08/15 06:25:29;;;;;;;;;19.75;19.00;;;;;20.65;49.48;99993.66;5079691;28;45368;-54
2022/08/15 06:28:36;;;;;;;;;21.25;18.75;;;;;20.64;49.99;99989.28;5079714;28;45426;-51
2022/08/15 06:31:33;;;;;;;;;24.00;21.00;;;;;20.67;49.98;99985.56;5079455;28;45463;-54
2022/08/15 06:34:16;;;;;;;;;20.50;19.25;;;;;20.67;49.79;99983.72;5076159;28;45483;-54
2022/08/15 06:37:06;;;;;;;;;23.75;18.75;;;;;20.68;49.90;99988.13;5083474;28;45488;-53
2022/08/15 06:39:31;;;;;;;;;21.75;21.00;;;;;20.69;49.68;99988.94;5083169;28;45279;-53
2022/08/15 06:42:21;;;;;;;;;23.00;20.25;;;;;20.70;50.03;99991.50;5083117;28;45595;-52
2022/08/15 06:44:51;;;;;;;;;22.75;22.00;;;;;20.69;49.92;99995.16;5083382;28;45343;-54
2022/08/15 06:47:19;;;;;;;;;21.25;19.50;;;;;20.70;50.00;99991.50;5082984;28;45333;-53
2022/08/15 06:49:50;;;;;;;;;19.50;19.25;;;;;20.71;50.05;99995.94;5080323;28;45389;-54
2022/08/15 06:52:16;;;;;;;;;21.50;19.00;;;;;20.71;50.14;99987.06;5078151;28;45228;-53
2022/08/15 06:54:41;;;;;;;;;21.75;20.75;;;;;20.72;50.12;99984.28;5082798;28;45413;-54
2022/08/15 06:57:20;;;;;;;;;21.50;19.75;;;;;20.72;49.88;99989.63;5083008;28;45331;-52
2022/08/15 07:00:15;;;;;;;;;22.00;21.25;;;;;20.72;50.22;99983.44;5083080;28;45318;-54
2022/08/15 07:02:49;;;;;;;;;20.50;19.00;;;;;20.71;49.96;99990.59;5073304;28;45324;-50
2022/08/15 07:05:27;;;;;;;;;23.25;18.25;;;;;20.72;50.09;100000.31;5072935;28;48449;-51
2022/08/15 07:08:18;;;;;;;;;20.25;19.25;;;;;20.74;49.97;100000.19;5062251;28;45181;-53
2022/08/15 07:11:08;;;;;;;;;22.00;20.00;;;;;20.76;49.89;99999.13;5071546;28;45330;-54
2022/08/15 07:13:45;;;;;;;;;18.75;18.75;;;;;20.77;50.12;99987.50;5062004;28;45423;-53
2022/08/15 07:16:20;;;;;;;;;20.75;19.00;;;;;20.81;50.13;99993.50;5062095;28;47104;-54
2022/08/15 07:18:51;;;;;;;;;18.50;18.25;;;;;20.82;49.72;99991.66;5062189;28;45253;-54
2022/08/15 07:21:18;;;;;;;;;56.25;47.00;;;;;20.84;49.99;99987.94;5060848;28;45501;-54
2022/08/15 07:24:02;;;;;;;;;17.00;16.25;;;;;20.88;50.16;99989.44;5062383;28;45475;-53
2022/08/15 07:26:32;;;;;;;;;17.75;14.00;;;;;20.90;50.22;99989.31;5061892;28;46212;-55
2022/08/15 07:28:59;;;;;;;;;20.75;18.50;;;;;20.93;50.21;99991.81;5061672;28;46481;-53
2022/08/15 07:31:33;;;;;;;;;21.25;20.75;;;;;20.96;50.27;99993.41;5060684;28;45439;-53
2022/08/15 07:34:16;;;;;;;;;21.75;19.25;;;;;21.00;49.83;99990.38;5062069;28;45477;-51
2022/08/15 07:36:57;;;;;;;;;16.75;16.75;;;;;21.05;49.95;99990.06;5061714;28;45344;-55
2022/08/15 07:39:38;;;;;;;;;22.25;18.75;;;;;21.09;49.65;99995.09;5061850;28;45280;-54
2022/08/15 07:42:21;;;;;;;;;22.00;19.00;;;;;21.16;50.01;99989.34;5062076;28;45382;-54
2022/08/15 07:44:53;;;;;;;;;18.00;18.00;;;;;21.20;50.36;99982.81;5061393;28;45506;-54
2022/08/15 07:47:26;;;;;;;;;20.50;18.00;;;;;21.24;50.17;99989.63;5061611;28;47126;-54
2022/08/15 07:50:04;;;;;;;;;22.25;19.25;;;;;21.25;50.02;99994.00;5061721;28;45385;-54
2022/08/15 07:52:31;;;;;;;;;17.25;14.50;;;;;21.33;50.51;99988.13;5079160;28;45275;-53
2022/08/15 07:55:12;;;;;;;;;18.25;18.25;;;;;21.35;50.31;99994.22;5082083;28;45251;-55
2022/08/15 07:57:41;;;;;;;;;19.75;16.25;;;;;21.40;50.38;99994.75;5079875;28;45486;-55
2022/08/15 08:00:16;;;;;;;;;15.25;15.25;;;;;21.44;50.60;99990.88;5080504;28;45779;-53
2022/08/15 08:03:04;;;;;;;;;20.00;17.75;;;;;21.47;50.03;99987.13;5074398;28;45403;-54
2022/08/15 08:05:54;;;;;;;;;19.25;16.50;;;;;21.54;50.66;99989.25;5060084;28;45716;-52
2022/08/15 08:08:25;;;;;;;;;17.25;14.25;;;;;21.59;50.07;99989.81;5060984;28;45295;-52
2022/08/15 08:11:01;;;;;;;;;18.00;14.25;;;;;21.60;50.22;99977.31;5061350;28;45288;-53
2022/08/15 08:13:49;;;;;;;;;13.25;13.00;;;;;21.78;50.52;99983.13;5061201;28;45360;-53
2022/08/15 08:16:21;;;;;;;;;15.25;14.25;;;;;21.87;50.15;99987.81;5061215;28;45467;-53
2022/08/15 08:19:13;;;;;;;;;15.00;13.00;;;;;21.97;50.32;99995.97;5061129;28;46502;-56
2022/08/15 08:22:17;;;;;;;;;11.50;11.50;;;;;22.07;50.31;99994.34;5060988;28;45299;-55
2022/08/15 08:25:01;;;;;;;;;14.25;14.25;;;;;22.16;50.51;99994.63;5061271;28;45339;-54
2022/08/15 08:27:36;;;;;;;;;12.75;12.00;;;;;22.26;49.92;99992.97;5061030;28;45532;-53
2022/08/15 08:30:19;;;;;;;;;11.00;11.00;;;;;22.32;49.89;99995.19;5060980;28;45680;-55
2022/08/15 08:32:52;;;;;;;;;13.25;12.00;;;;;22.42;49.75;99991.84;5060855;28;45272;-55
2022/08/15 08:35:39;;;;;;;;;14.25;13.00;;;;;22.50;49.33;99995.66;5061239;28;45355;-55
2022/08/15 08:38:10;;;;;;;;;13.50;13.25;;;;;22.57;49.29;99996.03;5061031;28;45504;-55
2022/08/15 08:43:54;;;;;;;;;14.75;13.50;;;;;22.69;49.19;99995.09;5071626;28;45243;-55
2022/08/15 08:46:37;;;;;;;;;14.25;13.00;;;;;22.74;49.24;99994.72;5081183;28;45479;-54
2022/08/15 08:49:03;;;;;;;;;12.25;11.50;;;;;22.80;49.31;99991.56;5081169;28;45224;-54
2022/08/15 08:51:40;;;;;;;;;15.00;15.00;;;;;22.81;49.37;99987.09;5072299;28;47110;-54
2022/08/15 08:54:15;;;;;;;;;7.50;7.00;;;;;22.81;49.29;99993.28;5080623;28;45383;-55
2022/08/15 08:56:47;;;;;;;;;10.75;8.75;;;;;22.80;49.29;100004.13;5081096;28;45274;-55
2022/08/15 08:59:21;;;;;;;;;6.00;6.00;;;;;22.79;49.12;99997.91;5080758;28;45404;-55
2022/08/15 09:01:53;;;;;;;;;5.50;5.50;;;;;22.83;49.26;100001.19;5080635;28;46236;-54
2022/08/15 09:04:23;;;;;;;;;6.50;5.50;;;;;22.84;49.37;99995.75;5060741;28;45465;-56
2022/08/15 09:06:51;;;;;;;;;5.50;5.50;;;;;22.87;49.28;100003.53;5060451;28;45292;-56
2022/08/15 09:09:32;;;;;;;;;3.75;3.75;;;;;22.91;49.13;100003.31;5060759;28;45315;-55
2022/08/15 09:15:03;;;;;;;;;4.50;3.25;;;;;22.95;49.27;100005.59;5060602;28;45287;-56
2022/08/15 09:17:33;;;;;;;;;4.50;4.50;;;;;22.95;49.35;100000.25;5060423;28;45153;-55
2022/08/15 09:20:10;;;;;;;;;4.00;4.00;;;;;22.97;49.52;99992.09;5060382;28;45445;-54
2022/08/15 09:22:36;;;;;;;;;5.00;5.00;;;;;23.00;49.49;100006.09;5060158;28;46151;-56
2022/08/15 09:25:02;;;;;;;;;6.00;5.00;;;;;23.02;49.24;99997.97;5059983;28;45458;-56
2022/08/15 09:27:44;;;;;;;;;4.50;3.75;;;;;23.11;49.14;100004.41;5060040;28;45259;-56
2022/08/15 09:30:11;;;;;;;;;6.00;6.00;;;;;23.13;49.06;100000.66;5060407;28;45976;-55
2022/08/15 09:32:55;;;;;;;;;6.00;6.00;;;;;23.21;49.01;100002.75;5059859;28;45430;-56
2022/08/15 09:35:52;;;;;;;;;8.50;8.50;;;;;23.26;48.76;100010.41;5069240;28;45322;-56
2022/08/15 09:38:37;;;;;;;;;6.75;6.00;;;;;23.28;49.06;100005.78;5058881;28;45262;-55
2022/08/15 09:41:21;;;;;;;;;6.25;6.00;;;;;23.28;48.62;100009.34;5075778;28;45194;-55
2022/08/15 09:44:01;;;;;;;;;6.50;6.50;;;;;23.26;48.58;100005.91;5079854;28;45342;-55
2022/08/15 09:46:49;;;;;;;;;7.00;7.00;;;;;23.27;48.48;100012.09;5080370;28;45256;-56
2022/08/15 09:49:33;;;;;;;;;11.25;11.25;;;;;23.24;48.39;100012.38;5080128;28;45338;-54
2022/08/15 09:52:21;;;;;;;;;11.25;11.25;;;;;23.21;48.19;100016.16;5078785;28;45368;-57
2022/08/15 09:54:56;;;;;;;;;8.25;8.25;;;;;23.20;48.52;100020.63;5080297;27;46422;-54
2022/08/15 09:57:28;;;;;;;;;11.00;9.75;;;;;23.19;48.42;100013.59;5079668;28;45353;-55
2022/08/15 10:00:21;;;;;;;;;10.75;7.75;;;;;23.20;48.51;100017.13;5080034;28;45422;-54
2022/08/15 10:02:51;;;;;;;;;12.25;11.00;;;;;23.18;48.35;100005.66;5069344;28;45248;-54
2022/08/15 10:05:24;;;;;;;;;8.75;8.75;;;;;23.24;48.51;100009.69;5059873;28;46464;-55
2022/08/15 10:07:52;;;;;;;;;7.50;6.25;;;;;23.27;48.60;100017.47;5066539;28;45265;-54
2022/08/15 10:10:18;;;;;;;;;12.00;10.25;;;;;23.33;48.71;100014.31;5066704;28;45283;-54
2022/08/15 10:13:13;;;;;;;;;7.75;7.75;;;;;23.37;48.48;100016.63;5066274;28;45533;-54
2022/08/15 10:15:43;;;;;;;;;9.50;8.75;;;;;23.41;48.36;100009.19;5064181;28;46472;-55
2022/08/15 10:18:22;;;;;;;;;9.75;9.25;;;;;23.44;48.29;100006.25;5066120;28;45395;-55
2022/08/15 10:20:52;;;;;;;;;11.00;8.75;;;;;23.47;48.17;100005.16;5066509;28;45418;-55
2022/08/15 10:23:46;;;;;;;;;8.25;8.00;;;;;23.49;48.02;100003.22;5066160;28;45502;-54
2022/08/15 10:26:24;;;;;;;;;8.50;8.50;;;;;23.53;48.18;100016.25;5065683;28;46436;-55
2022/08/15 10:29:26;;;;;;;;;7.00;7.00;;;;;23.56;47.98;100004.44;5066196;28;45257;-55
2022/08/15 10:31:57;;;;;;;;;11.50;10.00;;;;;23.58;47.84;100005.16;5062417;28;45246;-54
2022/08/15 10:34:37;;;;;;;;;8.50;8.50;;;;;23.61;47.72;100012.97;5086469;28;45495;-55
2022/08/15 10:37:07;;;;;;;;;10.50;10.00;;;;;23.63;47.81;100011.00;5086267;28;46231;-55
2022/08/15 10:40:07;;;;;;;;;9.00;9.00;;;;;23.65;47.76;100002.84;5086364;28;45251;-56
2022/08/15 10:42:44;;;;;;;;;10.00;10.00;;;;;23.64;47.85;100003.81;5086207;27;45342;-53
2022/08/15 10:45:22;;;;;;;;;10.00;8.75;;;;;23.65;47.65;100008.22;5086279;28;45525;-55
2022/08/15 10:47:54;;;;;;;;;9.25;7.50;;;;;23.63;47.51;100002.94;5086012;28;45227;-55
2022/08/15 10:50:26;;;;;;;;;7.75;7.50;;;;;23.59;47.94;100006.84;5078408;28;45370;-54
2022/08/15 10:53:27;;;;;;;;;8.00;8.00;;;;;23.60;47.79;100005.88;5066274;28;45227;-55
2022/08/15 10:56:06;;;;;;;;;8.50;8.00;;;;;23.60;47.62;100005.06;5060230;28;45161;-54
2022/08/15 10:58:32;;;;;;;;;9.25;9.25;;;;;23.61;47.89;100004.03;5065402;28;46262;-56
2022/08/15 11:01:07;;;;;;;;;9.50;9.50;;;;;23.67;47.85;100006.22;5066590;28;45415;-54
2022/08/15 11:03:43;;;;;;;;;10.00;9.00;;;;;23.74;47.83;100001.25;5071499;27;45381;-53
2022/08/15 11:06:15;;;;;;;;;9.00;8.00;;;;;23.79;47.64;99999.88;5065870;28;45399;-52
2022/08/15 11:08:49;;;;;;;;;11.00;11.00;;;;;23.83;47.49;100000.50;5065770;28;46050;-53
2022/08/15 11:11:19;;;;;;;;;8.00;7.00;;;;;23.84;47.55;100002.19;5065658;28;45293;-54
2022/08/15 11:14:00;;;;;;;;;8.25;7.25;;;;;23.82;47.32;99999.66;5065570;28;45334;-54
2022/08/15 11:16:41;;;;;;;;;8.00;7.00;;;;;23.80;47.22;99998.06;5065573;28;45193;-53
2022/08/15 11:19:21;;;;;;;;;8.50;8.50;;;;;23.77;47.20;99995.63;5061692;28;45374;-57
2022/08/15 11:21:57;;;;;;;;;7.00;7.00;;;;;23.73;47.21;100008.41;5062182;28;45166;-54
2022/08/15 11:24:37;;;;;;;;;10.00;9.50;;;;;23.68;46.70;100002.59;5062333;28;45319;-54
2022/08/15 11:27:19;;;;;;;;;9.75;9.00;;;;;23.64;47.32;100001.97;5069685;28;45249;-54
2022/08/15 11:29:46;;;;;;;;;10.50;9.00;;;;;23.54;47.21;99992.97;5082324;28;46069;-56
2022/08/15 11:32:23;;;;;;;;;10.00;10.00;;;;;23.59;47.20;100003.34;5082189;28;45444;-54
2022/08/15 11:34:50;;;;;;;;;9.25;8.25;;;;;23.58;47.20;100001.63;5082360;28;45444;-56
2022/08/15 11:37:20;;;;;;;;;10.25;9.50;;;;;23.57;47.18;100005.28;5069113;28;45517;-56
2022/08/15 11:40:05;;;;;;;;;10.50;10.50;;;;;23.57;47.45;100007.97;5080890;28;48099;-54
2022/08/15 11:42:37;;;;;;;;;9.25;8.50;;;;;23.57;47.50;100008.84;5081789;27;45858;-54
2022/08/15 11:45:09;;;;;;;;;8.00;8.00;;;;;23.58;47.16;100015.88;5082322;28;45333;-54
2022/08/15 11:47:42;;;;;;;;;10.50;9.00;;;;;23.61;47.48;100015.66;5081938;28;45322;-56